Time;durP1;ratioP1;P1;durP2;ratioP2;P2;SDS_P1;SDS_P2;PMS_P1;PMS_P2;Temp;Humidity;BMP_temperature;BMP_pressure;BME280_temperature;BME280_humidity;BME280_pressure;Samples;Min_cycle;Max_cycle;Signal;HPM_P1;HPM_P2
2023/10/21 00:02:03;;;;;;;;;;;12.50;92.60;;;;;;5066454;28;20281;-83
2023/10/21 00:04:28;;;;;;;;;;;12.50;92.70;;;;;;5060175;28;20385;-82
2023/10/21 00:06:56;;;;;;;;;;;12.50;92.70;;;;;;5063696;28;19921;-82
2023/10/21 00:09:22;;;;;;;;;;;12.50;92.80;;;;;;5063772;28;19928;-82
2023/10/21 00:11:47;;;;;;;;;;;12.50;92.60;;;;;;5070991;28;19909;-82
2023/10/21 00:14:13;;;;;;;;;;;12.50;92.70;;;;;;5054053;28;19917;-83
2023/10/21 00:16:38;;;;;;;;;;;12.40;92.70;;;;;;5055884;28;20337;-82
2023/10/21 00:19:06;;;;;;;;;;;12.40;92.70;;;;;;5058319;28;19948;-82
2023/10/21 00:21:32;;;;;;;;;;;12.40;92.70;;;;;;5064896;28;20240;-83
2023/10/21 00:24:00;;;;;;;;;;;12.40;92.60;;;;;;5067002;28;20325;-83
2023/10/21 00:26:25;;;;;;;;;;;12.50;92.70;;;;;;5056632;28;19913;-82
2023/10/21 00:28:53;;;;;;;;;;;12.40;92.80;;;;;;5070974;28;20389;-83
2023/10/21 00:31:19;;;;;;;;;;;12.40;92.70;;;;;;5072235;28;20386;-83
2023/10/21 00:33:44;;;;;;;;;;;12.40;92.80;;;;;;5093430;28;19904;-82
2023/10/21 00:36:10;;;;;;;;;;;12.40;92.80;;;;;;5088780;28;19901;-82
2023/10/21 00:38:35;;;;;;;;;;;12.50;92.70;;;;;;5080701;28;19920;-82
2023/10/21 00:41:01;;;;;;;;;;;12.50;92.40;;;;;;5073166;28;19916;-82
2023/10/21 00:43:36;;;;;;;;;;;12.50;92.50;;;;;;5076228;28;19999;-83
2023/10/21 00:46:28;;;;;;;;;;;12.50;92.50;;;;;;5062893;28;19920;-83
2023/10/21 00:48:56;;;;;;;;;;;12.40;92.50;;;;;;5049857;28;19958;-83
2023/10/21 00:51:21;;;;;;;;;;;12.40;92.50;;;;;;5071870;28;20297;-82
2023/10/21 00:53:47;;;;;;;;;;;12.50;92.70;;;;;;5070584;28;19919;-82
2023/10/21 00:56:13;;;;;;;;;;;12.40;92.30;;;;;;5067209;28;19915;-83
2023/10/21 00:58:40;;;;;;;;;;;12.40;92.50;;;;;;5066392;28;19912;-82
2023/10/21 01:01:06;;;;;;;;;;;12.40;92.30;;;;;;5061688;28;19974;-83
2023/10/21 01:03:35;;;;;;;;;;;12.30;92.40;;;;;;5072942;28;20366;-82
2023/10/21 01:06:00;;;;;;;;;;;12.40;92.30;;;;;;5068058;28;19999;-83
2023/10/21 01:08:26;;;;;;;;;;;12.40;92.30;;;;;;5069296;28;19988;-83
2023/10/21 01:10:51;;;;;;;;;;;12.40;92.40;;;;;;5076490;28;20319;-83
2023/10/21 01:13:17;;;;;;;;;;;12.40;92.50;;;;;;5070185;28;20306;-83
2023/10/21 01:15:43;;;;;;;;;;;12.40;92.60;;;;;;5067476;28;19976;-83
2023/10/21 01:18:08;;;;;;;;;;;12.40;92.70;;;;;;5073374;28;19982;-83
2023/10/21 01:20:35;;;;;;;;;;;12.50;92.60;;;;;;5076120;28;20794;-83
2023/10/21 01:23:01;;;;;;;;;;;12.50;92.50;;;;;;5069946;28;19979;-83
2023/10/21 01:25:27;;;;;;;;;;;12.50;92.50;;;;;;5069452;28;19990;-83
2023/10/21 01:27:56;;;;;;;;;;;12.60;92.60;;;;;;5061044;28;19912;-83
2023/10/21 01:30:21;;;;;;;;;;;12.60;92.50;;;;;;5069724;28;19924;-83
2023/10/21 01:32:50;;;;;;;;;;;12.60;92.60;;;;;;5077813;28;19908;-84
2023/10/21 01:35:16;;;;;;;;;;;12.70;92.50;;;;;;5062125;28;20301;-83
2023/10/21 01:37:45;;;;;;;;;;;12.70;92.50;;;;;;5066648;28;19928;-83
2023/10/21 01:40:11;;;;;;;;;;;12.70;92.50;;;;;;5064712;28;19913;-83
2023/10/21 01:42:37;;;;;;;;;;;12.80;92.50;;;;;;5061171;28;20426;-84
2023/10/21 01:45:04;;;;;;;;;;;12.80;92.50;;;;;;5068125;28;19943;-84
2023/10/21 01:47:30;;;;;;;;;;;12.80;92.40;;;;;;5060853;28;20367;-83
2023/10/21 01:49:55;;;;;;;;;;;12.80;92.40;;;;;;5075311;28;19913;-83
2023/10/21 01:52:21;;;;;;;;;;;12.90;92.50;;;;;;5068205;28;20431;-83
2023/10/21 01:54:46;;;;;;;;;;;12.80;92.50;;;;;;5075218;28;19913;-84
2023/10/21 01:57:12;;;;;;;;;;;12.90;92.50;;;;;;5085681;28;19913;-83
2023/10/21 01:59:41;;;;;;;;;;;12.90;92.50;;;;;;5065400;28;20755;-84
2023/10/21 02:02:06;;;;;;;;;;;13.00;92.50;;;;;;5058189;28;19917;-83
2023/10/21 02:04:34;;;;;;;;;;;13.00;92.40;;;;;;5066462;28;19913;-83
2023/10/21 02:07:00;;;;;;;;;;;13.00;92.40;;;;;;5073154;28;19919;-83
2023/10/21 02:09:25;;;;;;;;;;;13.10;92.40;;;;;;5063613;28;20019;-83
2023/10/21 02:11:56;;;;;;;;;;;13.10;92.40;;;;;;5061955;28;19909;-83
2023/10/21 02:14:22;;;;;;;;;;;13.10;92.40;;;;;;5052319;28;19908;-83
2023/10/21 02:16:52;;;;;;;;;;;13.10;92.40;;;;;;5076625;28;19975;-82
2023/10/21 02:19:17;;;;;;;;;;;13.10;92.40;;;;;;5082957;28;19913;-83
2023/10/21 02:21:43;;;;;;;;;;;13.10;92.50;;;;;;5061719;28;19909;-83
2023/10/21 02:24:08;;;;;;;;;;;13.20;92.50;;;;;;5069192;28;19936;-83
2023/10/21 02:26:34;;;;;;;;;;;13.20;92.30;;;;;;5069541;28;19916;-83
2023/10/21 02:29:02;;;;;;;;;;;13.20;92.40;;;;;;5066308;28;19917;-84
2023/10/21 02:31:27;;;;;;;;;;;13.30;92.50;;;;;;5064776;28;19930;-83
2023/10/21 02:33:53;;;;;;;;;;;13.30;92.40;;;;;;5072118;28;20019;-83
2023/10/21 02:36:18;;;;;;;;;;;13.30;92.50;;;;;;5065239;28;19912;-83
2023/10/21 02:38:44;;;;;;;;;;;13.20;92.50;;;;;;5072623;28;19939;-83
2023/10/21 02:41:09;;;;;;;;;;;13.30;92.60;;;;;;5063860;28;19920;-83
2023/10/21 02:43:35;;;;;;;;;;;13.30;92.60;;;;;;5072013;28;19920;-83
2023/10/21 02:46:10;;;;;;;;;;;13.30;92.60;;;;;;5065061;28;19935;-83
2023/10/21 02:48:36;;;;;;;;;;;13.30;92.60;;;;;;5069104;28;19916;-84
2023/10/21 02:51:10;;;;;;;;;;;13.30;92.70;;;;;;5058031;28;19915;-83
2023/10/21 02:53:36;;;;;;;;;;;13.30;92.60;;;;;;5070885;28;19927;-83
2023/10/21 02:56:02;;;;;;;;;;;13.30;92.60;;;;;;5059733;28;19909;-83
2023/10/21 02:58:28;;;;;;;;;;;13.40;92.70;;;;;;5068308;28;19912;-83
2023/10/21 03:00:54;;;;;;;;;;;13.40;92.70;;;;;;5058516;28;19908;-83
2023/10/21 03:03:19;;;;;;;;;;;13.40;92.70;;;;;;5074010;28;19912;-83
2023/10/21 03:05:44;;;;;;;;;;;13.40;92.80;;;;;;5069541;28;20301;-84
2023/10/21 03:08:10;;;;;;;;;;;13.40;92.80;;;;;;5060239;28;20011;-83
2023/10/21 03:10:36;;;;;;;;;;;13.30;92.70;;;;;;5070967;28;19908;-83
2023/10/21 03:13:01;;;;;;;;;;;13.30;92.90;;;;;;5071966;28;19908;-84
2023/10/21 03:15:27;;;;;;;;;;;13.40;93.00;;;;;;5059979;28;19935;-83
2023/10/21 03:17:52;;;;;;;;;;;13.40;92.90;;;;;;5067178;28;20333;-84
2023/10/21 03:20:18;;;;;;;;;;;13.40;93.00;;;;;;5061876;28;19999;-83
2023/10/21 03:22:43;;;;;;;;;;;13.40;93.10;;;;;;5049811;28;19926;-84
2023/10/21 03:25:09;;;;;;;;;;;13.50;93.10;;;;;;5067302;28;20366;-83
2023/10/21 03:27:35;;;;;;;;;;;13.50;93.00;;;;;;5068111;28;20012;-84
2023/10/21 03:30:01;;;;;;;;;;;13.50;93.00;;;;;;5065055;28;20318;-84
2023/10/21 03:32:26;;;;;;;;;;;13.50;93.00;;;;;;5060781;28;19912;-83
2023/10/21 03:34:52;;;;;;;;;;;13.50;93.00;;;;;;5055106;28;20425;-84
2023/10/21 03:37:17;;;;;;;;;;;13.60;93.00;;;;;;5061135;28;19913;-83
2023/10/21 03:39:43;;;;;;;;;;;13.60;93.00;;;;;;5083240;28;19987;-83
2023/10/21 03:42:08;;;;;;;;;;;13.60;93.10;;;;;;5084060;28;19908;-83
2023/10/21 03:44:34;;;;;;;;;;;13.60;93.00;;;;;;5074236;28;19908;-83
2023/10/21 03:46:59;;;;;;;;;;;13.60;93.00;;;;;;5081163;28;19912;-84
2023/10/21 03:49:25;;;;;;;;;;;13.60;93.10;;;;;;5083190;28;19916;-83
2023/10/21 03:51:50;;;;;;;;;;;13.50;93.30;;;;;;5072370;28;20000;-83
2023/10/21 03:54:16;;;;;;;;;;;13.50;93.30;;;;;;5077443;28;19912;-84
2023/10/21 03:56:41;;;;;;;;;;;13.60;93.30;;;;;;5080127;28;20417;-84
2023/10/21 03:59:07;;;;;;;;;;;13.60;93.40;;;;;;5071114;28;20344;-84
2023/10/21 04:01:32;;;;;;;;;;;13.60;93.30;;;;;;5070623;28;20008;-84
2023/10/21 04:03:58;;;;;;;;;;;13.60;93.40;;;;;;5080741;28;19913;-83
2023/10/21 04:06:23;;;;;;;;;;;13.60;93.40;;;;;;5071806;28;20293;-84
2023/10/21 04:08:49;;;;;;;;;;;13.60;93.10;;;;;;5063914;28;19921;-84
2023/10/21 04:11:14;;;;;;;;;;;13.60;93.10;;;;;;5079880;28;19916;-82
2023/10/21 04:13:40;;;;;;;;;;;13.60;93.40;;;;;;5075995;28;20377;-83
2023/10/21 04:16:05;;;;;;;;;;;13.60;93.30;;;;;;5073763;28;19912;-84
2023/10/21 04:18:31;;;;;;;;;;;13.60;93.30;;;;;;5070955;28;19915;-84
2023/10/21 04:20:56;;;;;;;;;;;13.60;93.40;;;;;;5059836;28;20382;-83
2023/10/21 04:23:25;;;;;;;;;;;13.60;93.40;;;;;;5067617;28;19943;-84
2023/10/21 04:25:50;;;;;;;;;;;13.60;93.40;;;;;;5062375;28;19920;-83
2023/10/21 04:28:16;;;;;;;;;;;13.60;93.50;;;;;;5059301;28;19920;-83
2023/10/21 04:30:42;;;;;;;;;;;13.70;93.30;;;;;;5069308;28;19920;-84
2023/10/21 04:33:07;;;;;;;;;;;13.60;93.30;;;;;;5068845;28;19908;-84
2023/10/21 04:35:35;;;;;;;;;;;13.70;93.30;;;;;;5078138;28;19919;-83
2023/10/21 04:38:00;;;;;;;;;;;13.70;93.30;;;;;;5092815;28;19947;-83
2023/10/21 04:40:26;;;;;;;;;;;13.60;93.30;;;;;;5077120;28;19917;-84
2023/10/21 04:42:52;;;;;;;;;;;13.60;93.50;;;;;;5072504;28;19923;-84
2023/10/21 04:45:18;;;;;;;;;;;13.60;93.60;;;;;;5074890;28;20355;-83
2023/10/21 04:47:44;;;;;;;;;;;13.60;93.60;;;;;;5071497;28;20355;-84
2023/10/21 04:50:09;;;;;;;;;;;13.60;93.70;;;;;;5070154;28;19936;-83
2023/10/21 04:52:35;;;;;;;;;;;13.70;93.50;;;;;;5069172;28;19913;-83
2023/10/21 04:55:01;;;;;;;;;;;13.70;93.30;;;;;;5069119;28;19920;-84
2023/10/21 04:57:27;;;;;;;;;;;13.70;93.50;;;;;;5071371;28;19912;-84
2023/10/21 04:59:52;;;;;;;;;;;13.70;93.40;;;;;;5065338;28;20418;-84
2023/10/21 05:02:20;;;;;;;;;;;13.80;93.30;;;;;;5072639;28;19919;-83
2023/10/21 05:04:46;;;;;;;;;;;13.70;93.20;;;;;;5066522;28;19939;-83
2023/10/21 05:07:12;;;;;;;;;;;13.70;93.50;;;;;;5072152;28;19912;-83
2023/10/21 05:09:37;;;;;;;;;;;13.70;93.30;;;;;;5056625;28;19917;-82
2023/10/21 05:12:06;;;;;;;;;;;13.80;93.30;;;;;;5070677;28;20227;-83
2023/10/21 05:14:31;;;;;;;;;;;13.80;93.40;;;;;;5067875;28;19927;-83
2023/10/21 05:16:57;;;;;;;;;;;13.80;93.50;;;;;;5058423;28;19912;-83
2023/10/21 05:19:23;;;;;;;;;;;13.80;93.60;;;;;;5066135;28;20030;-84
2023/10/21 05:21:48;;;;;;;;;;;13.80;93.70;;;;;;5060383;28;19917;-83
2023/10/21 05:24:14;;;;;;;;;;;13.90;93.40;;;;;;5052039;28;19913;-83
2023/10/21 05:26:40;;;;;;;;;;;13.80;93.40;;;;;;5061180;28;19916;-84
2023/10/21 05:29:06;;;;;;;;;;;13.90;93.20;;;;;;5066324;28;19916;-83
2023/10/21 05:31:31;;;;;;;;;;;13.80;93.40;;;;;;5063956;28;20312;-83
2023/10/21 05:33:59;;;;;;;;;;;13.80;93.40;;;;;;5075150;28;20393;-84
2023/10/21 05:36:26;;;;;;;;;;;13.90;93.50;;;;;;5053085;28;19920;-83
2023/10/21 05:38:51;;;;;;;;;;;13.80;93.20;;;;;;5058275;28;20003;-84
2023/10/21 05:41:17;;;;;;;;;;;13.80;93.50;;;;;;5053088;28;20432;-82
2023/10/21 05:43:42;;;;;;;;;;;13.90;93.50;;;;;;5071230;28;20417;-83
2023/10/21 05:46:07;;;;;;;;;;;13.80;93.60;;;;;;5056959;28;20333;-82
2023/10/21 05:48:33;;;;;;;;;;;13.80;93.60;;;;;;5051444;28;20352;-84
2023/10/21 05:51:01;;;;;;;;;;;13.90;93.70;;;;;;5062439;28;19923;-83
2023/10/21 05:53:36;;;;;;;;;;;13.80;93.70;;;;;;5060305;28;19909;-86
2023/10/21 05:56:02;;;;;;;;;;;13.90;93.70;;;;;;5062014;28;19912;-85
2023/10/21 05:58:29;;;;;;;;;;;13.80;93.70;;;;;;5056904;28;20002;-85
2023/10/21 06:00:55;;;;;;;;;;;13.90;93.70;;;;;;5064751;28;19951;-86
2023/10/21 06:03:21;;;;;;;;;;;13.80;93.70;;;;;;5055811;28;19959;-86
2023/10/21 06:05:54;;;;;;;;;;;13.80;93.70;;;;;;5055792;28;19921;-86
2023/10/21 06:08:21;;;;;;;;;;;13.80;93.60;;;;;;5063279;28;19916;-86
2023/10/21 06:10:47;;;;;;;;;;;13.80;93.70;;;;;;5057536;28;19909;-86
2023/10/21 06:13:12;;;;;;;;;;;13.70;93.70;;;;;;5067979;28;19913;-86
2023/10/21 06:15:38;;;;;;;;;;;13.60;93.60;;;;;;5056985;28;19931;-84
2023/10/21 06:18:04;;;;;;;;;;;13.60;93.70;;;;;;5057023;28;19920;-85
2023/10/21 06:20:29;;;;;;;;;;;13.60;93.70;;;;;;5056847;28;19956;-86
2023/10/21 06:23:05;;;;;;;;;;;13.60;93.70;;;;;;5070911;28;19920;-84
2023/10/21 06:25:31;;;;;;;;;;;13.60;93.70;;;;;;5038710;28;19959;-84
2023/10/21 06:27:59;;;;;;;;;;;13.60;93.50;;;;;;5053902;28;19913;-86
2023/10/21 06:30:28;;;;;;;;;;;13.50;93.60;;;;;;5054694;28;19960;-86
2023/10/21 06:32:53;;;;;;;;;;;13.50;93.60;;;;;;5066031;28;19913;-85
2023/10/21 06:35:56;;;;;;;;;;;;;;;;;;;;;
2023/10/21 06:38:53;;;;;;;;;;;;;;;;;;;;;
2023/10/21 06:41:19;;;;;;;;;;;13.50;93.70;;;;;;5062595;28;19923;-83
2023/10/21 06:43:44;;;;;;;;;;;13.50;93.80;;;;;;5049585;28;20015;-86
2023/10/21 06:46:10;;;;;;;;;;;13.60;93.80;;;;;;5071593;28;20196;-83
2023/10/21 06:48:36;;;;;;;;;;;13.60;93.80;;;;;;5079037;28;19917;-84
2023/10/21 06:51:01;;;;;;;;;;;13.60;93.70;;;;;;5069661;28;19988;-84
2023/10/21 06:53:27;;;;;;;;;;;13.60;93.70;;;;;;5050694;28;19959;-83
2023/10/21 06:55:52;;;;;;;;;;;13.70;93.80;;;;;;5075428;28;19897;-84
2023/10/21 06:58:19;;;;;;;;;;;13.70;93.70;;;;;;5081074;28;19926;-84
2023/10/21 07:00:45;;;;;;;;;;;13.80;93.80;;;;;;5059640;28;19924;-84
2023/10/21 07:03:11;;;;;;;;;;;13.90;93.70;;;;;;5051703;28;19913;-85
2023/10/21 07:05:37;;;;;;;;;;;13.90;93.70;;;;;;5061102;28;19916;-84
2023/10/21 07:08:03;;;;;;;;;;;14.00;93.60;;;;;;5059441;28;19908;-85
2023/10/21 07:10:30;;;;;;;;;;;14.00;93.50;;;;;;5058550;28;20453;-84
2023/10/21 07:12:56;;;;;;;;;;;14.10;93.40;;;;;;5065819;28;19913;-85
2023/10/21 07:15:28;;;;;;;;;;;14.10;93.20;;;;;;5055755;28;19913;-85
2023/10/21 07:17:53;;;;;;;;;;;14.20;93.20;;;;;;5060802;28;19916;-83
2023/10/21 07:20:19;;;;;;;;;;;14.10;93.00;;;;;;5060461;28;19921;-83
2023/10/21 07:22:44;;;;;;;;;;;14.10;93.10;;;;;;5057174;28;19940;-83
2023/10/21 07:25:10;;;;;;;;;;;14.10;93.00;;;;;;5069166;28;19913;-84
2023/10/21 07:27:36;;;;;;;;;;;14.10;93.10;;;;;;5060687;28;19912;-84
2023/10/21 07:30:03;;;;;;;;;;;14.30;92.90;;;;;;5070155;28;19916;-84
2023/10/21 07:32:29;;;;;;;;;;;14.30;92.80;;;;;;5069085;28;19917;-84
2023/10/21 07:34:55;;;;;;;;;;;14.20;92.60;;;;;;5068067;28;19912;-84
2023/10/21 07:37:20;;;;;;;;;;;14.20;92.70;;;;;;5067267;28;19920;-83
2023/10/21 07:39:45;;;;;;;;;;;14.20;92.60;;;;;;5063887;28;19924;-84
2023/10/21 07:42:12;;;;;;;;;;;14.30;92.40;;;;;;5067781;28;19913;-83
2023/10/21 07:44:38;;;;;;;;;;;14.30;92.60;;;;;;5064590;28;19912;-84
2023/10/21 07:47:04;;;;;;;;;;;14.30;92.50;;;;;;5057468;28;20431;-84
2023/10/21 07:49:30;;;;;;;;;;;14.40;92.30;;;;;;5055114;28;20365;-83
2023/10/21 07:51:55;;;;;;;;;;;14.50;92.30;;;;;;5056155;28;19920;-84
2023/10/21 07:54:20;;;;;;;;;;;14.50;92.00;;;;;;5053287;28;19920;-83
2023/10/21 07:56:46;;;;;;;;;;;14.60;91.70;;;;;;5083630;28;19947;-84
2023/10/21 07:59:11;;;;;;;;;;;14.70;91.90;;;;;;5059092;28;19913;-83
2023/10/21 08:01:39;;;;;;;;;;;14.80;91.70;;;;;;5060768;28;20301;-83
2023/10/21 08:04:05;;;;;;;;;;;14.90;91.00;;;;;;5071298;28;19962;-83
2023/10/21 08:06:30;;;;;;;;;;;15.00;90.70;;;;;;5064113;28;19925;-82
2023/10/21 08:08:56;;;;;;;;;;;15.10;90.10;;;;;;5062257;28;19924;-82
2023/10/21 08:11:25;;;;;;;;;;;15.10;89.70;;;;;;5057357;28;19913;-83
2023/10/21 08:13:50;;;;;;;;;;;15.00;89.30;;;;;;5051628;28;19916;-84
2023/10/21 08:16:16;;;;;;;;;;;15.00;88.90;;;;;;5065051;28;19920;-85
2023/10/21 08:18:41;;;;;;;;;;;14.90;88.80;;;;;;5067165;28;19920;-83
2023/10/21 08:21:07;;;;;;;;;;;14.80;88.70;;;;;;5065475;28;19913;-83
2023/10/21 08:23:32;;;;;;;;;;;14.80;88.60;;;;;;5064976;28;19916;-83
2023/10/21 08:25:57;;;;;;;;;;;14.60;89.00;;;;;;5062583;28;19980;-83
2023/10/21 08:28:23;;;;;;;;;;;14.60;89.00;;;;;;5063559;28;19913;-83
2023/10/21 08:30:49;;;;;;;;;;;14.60;89.40;;;;;;5067111;28;19922;-83
2023/10/21 08:33:15;;;;;;;;;;;14.70;89.70;;;;;;5060334;28;20196;-83
2023/10/21 08:35:41;;;;;;;;;;;14.60;89.40;;;;;;5060406;28;19913;-84
2023/10/21 08:38:06;;;;;;;;;;;14.60;89.20;;;;;;5059682;28;19925;-84
2023/10/21 08:40:35;;;;;;;;;;;14.70;88.70;;;;;;5068239;28;19912;-84
2023/10/21 08:43:01;;;;;;;;;;;14.60;88.50;;;;;;5057716;28;20358;-84
2023/10/21 08:45:26;;;;;;;;;;;14.60;88.40;;;;;;5058790;28;19920;-83
2023/10/21 08:47:53;;;;;;;;;;;14.60;87.70;;;;;;5055693;28;20401;-84
2023/10/21 08:50:20;;;;;;;;;;;14.70;87.40;;;;;;5058741;28;19975;-83
2023/10/21 08:52:47;;;;;;;;;;;14.70;87.00;;;;;;5068764;28;19912;-84
2023/10/21 08:55:13;;;;;;;;;;;14.70;87.50;;;;;;5074162;28;20372;-83
2023/10/21 08:57:39;;;;;;;;;;;14.70;86.00;;;;;;5068158;28;19916;-84
2023/10/21 09:00:05;;;;;;;;;;;14.80;85.30;;;;;;5059489;28;19920;-83
2023/10/21 09:02:30;;;;;;;;;;;14.90;85.50;;;;;;5070628;28;19915;-84
2023/10/21 09:04:56;;;;;;;;;;;14.90;86.00;;;;;;5067669;28;19913;-83
2023/10/21 09:07:22;;;;;;;;;;;14.90;86.10;;;;;;5055495;28;19919;-84
2023/10/21 09:09:48;;;;;;;;;;;14.90;85.20;;;;;;5057459;28;20034;-84
2023/10/21 09:12:14;;;;;;;;;;;15.00;84.90;;;;;;5059112;28;19913;-84
2023/10/21 09:14:59;;;;;;;;;;;15.00;84.80;;;;;;5073558;28;19916;-84
2023/10/21 09:17:35;;;;;;;;;;;14.90;85.10;;;;;;5082266;28;19971;-81
2023/10/21 09:20:11;;;;;;;;;;;14.70;84.10;;;;;;5072518;28;19932;-83
2023/10/21 09:22:38;;;;;;;;;;;14.70;84.50;;;;;;5057210;28;19913;-83
2023/10/21 09:25:09;;;;;;;;;;;14.60;84.00;;;;;;5071144;28;19995;-82
2023/10/21 09:27:34;;;;;;;;;;;14.60;84.70;;;;;;5071297;28;19966;-82
2023/10/21 09:30:00;;;;;;;;;;;14.60;84.00;;;;;;5057382;28;20392;-82
2023/10/21 09:32:28;;;;;;;;;;;14.70;84.40;;;;;;5055997;28;19913;-83
2023/10/21 09:35:11;;;;;;;;;;;14.70;85.00;;;;;;5050018;28;19922;-82
2023/10/21 09:37:37;;;;;;;;;;;14.80;83.50;;;;;;5067145;28;20433;-83
2023/10/21 09:40:02;;;;;;;;;;;14.90;83.00;;;;;;5047667;28;19924;-83
2023/10/21 09:42:28;;;;;;;;;;;14.90;82.70;;;;;;5054243;28;19939;-84
2023/10/21 09:44:54;;;;;;;;;;;15.00;82.20;;;;;;5051964;28;19975;-84
2023/10/21 09:47:21;;;;;;;;;;;15.20;81.40;;;;;;5052145;28;19983;-83
2023/10/21 09:49:48;;;;;;;;;;;15.20;81.60;;;;;;5059017;28;20370;-83
2023/10/21 09:52:15;;;;;;;;;;;15.20;80.70;;;;;;5070731;28;19908;-82
2023/10/21 09:54:45;;;;;;;;;;;15.10;79.30;;;;;;5077115;28;19908;-82
2023/10/21 09:57:11;;;;;;;;;;;15.10;79.40;;;;;;5058248;28;19967;-84
2023/10/21 09:59:37;;;;;;;;;;;15.00;79.80;;;;;;5056692;28;19963;-84
2023/10/21 10:02:04;;;;;;;;;;;15.00;81.50;;;;;;5058538;28;19913;-84
2023/10/21 10:04:31;;;;;;;;;;;15.00;81.20;;;;;;5057608;28;19917;-84
2023/10/21 10:06:58;;;;;;;;;;;15.00;80.40;;;;;;5056179;28;19921;-84
2023/10/21 10:09:25;;;;;;;;;;;15.00;80.50;;;;;;5057357;28;19920;-83
2023/10/21 10:11:52;;;;;;;;;;;15.00;81.30;;;;;;5060110;28;20058;-83
2023/10/21 10:14:18;;;;;;;;;;;15.20;81.10;;;;;;5056937;28;19920;-82
2023/10/21 10:16:47;;;;;;;;;;;15.20;80.10;;;;;;5058315;28;19908;-81
2023/10/21 10:19:12;;;;;;;;;;;15.20;79.30;;;;;;5059531;28;20008;-82
2023/10/21 10:21:41;;;;;;;;;;;15.20;79.80;;;;;;5069082;28;19920;-81
2023/10/21 10:24:07;;;;;;;;;;;15.30;79.50;;;;;;5064833;28;19913;-82
2023/10/21 10:26:36;;;;;;;;;;;15.30;79.30;;;;;;5058669;28;20015;-83
2023/10/21 10:29:16;;;;;;;;;;;15.50;76.70;;;;;;5059964;28;19917;-82
2023/10/21 10:31:45;;;;;;;;;;;15.60;77.40;;;;;;5055282;28;19928;-84
2023/10/21 10:34:10;;;;;;;;;;;15.60;75.60;;;;;;5059585;28;19912;-85
2023/10/21 10:36:36;;;;;;;;;;;15.60;75.40;;;;;;5053755;28;19920;-85
2023/10/21 10:39:04;;;;;;;;;;;15.60;75.00;;;;;;5059950;28;19923;-84
2023/10/21 10:41:29;;;;;;;;;;;15.60;75.00;;;;;;5065293;28;20397;-84
2023/10/21 10:44:02;;;;;;;;;;;15.60;74.80;;;;;;5071502;28;19935;-85
2023/10/21 10:46:36;;;;;;;;;;;15.50;75.40;;;;;;5050384;28;19974;-84
2023/10/21 10:49:05;;;;;;;;;;;15.50;76.70;;;;;;5055697;28;19917;-84
2023/10/21 10:51:41;;;;;;;;;;;15.50;76.80;;;;;;5056305;28;19913;-84
2023/10/21 10:54:15;;;;;;;;;;;15.50;77.80;;;;;;5056344;28;19913;-85
2023/10/21 10:56:52;;;;;;;;;;;15.50;76.90;;;;;;5060431;28;20382;-84
2023/10/21 10:59:17;;;;;;;;;;;15.50;78.50;;;;;;5061394;28;19913;-84
2023/10/21 11:01:46;;;;;;;;;;;15.50;78.20;;;;;;5058120;28;19912;-85
2023/10/21 11:04:14;;;;;;;;;;;15.60;76.70;;;;;;5052598;28;19995;-84
2023/10/21 11:06:40;;;;;;;;;;;15.60;75.20;;;;;;5055242;28;20370;-84
2023/10/21 11:09:16;;;;;;;;;;;15.60;72.10;;;;;;5050022;28;19970;-84
2023/10/21 11:11:45;;;;;;;;;;;15.60;72.10;;;;;;5051530;28;19974;-84
2023/10/21 11:14:13;;;;;;;;;;;15.70;72.00;;;;;;5052121;28;19951;-85
2023/10/21 11:16:41;;;;;;;;;;;15.80;71.40;;;;;;5056030;28;19913;-84
2023/10/21 11:19:07;;;;;;;;;;;16.00;71.00;;;;;;5054593;28;19920;-84
2023/10/21 11:21:36;;;;;;;;;;;16.10;70.90;;;;;;5057735;28;20401;-84
2023/10/21 11:24:02;;;;;;;;;;;16.20;70.00;;;;;;5053221;28;19921;-83
2023/10/21 11:26:27;;;;;;;;;;;16.20;72.00;;;;;;5054587;28;19924;-82
2023/10/21 11:28:53;;;;;;;;;;;16.20;70.20;;;;;;5055891;28;19912;-84
2023/10/21 11:31:19;;;;;;;;;;;16.10;70.90;;;;;;5054390;28;19921;-82
2023/10/21 11:33:44;;;;;;;;;;;16.10;70.40;;;;;;5055698;28;19934;-82
2023/10/21 11:36:13;;;;;;;;;;;16.00;70.40;;;;;;5072588;28;19917;-82
2023/10/21 11:38:38;;;;;;;;;;;16.00;71.10;;;;;;5079301;28;19924;-82
2023/10/21 11:41:10;;;;;;;;;;;16.00;72.00;;;;;;5056474;28;19912;-83
2023/10/21 11:43:36;;;;;;;;;;;15.90;72.70;;;;;;5062220;28;19915;-83
2023/10/21 11:46:01;;;;;;;;;;;15.80;70.80;;;;;;5055585;28;20007;-86
2023/10/21 11:48:29;;;;;;;;;;;15.80;71.30;;;;;;5054307;28;20074;-83
2023/10/21 11:50:55;;;;;;;;;;;15.90;71.40;;;;;;5052541;28;19923;-84
2023/10/21 11:53:21;;;;;;;;;;;16.00;72.60;;;;;;5052321;28;19935;-83
2023/10/21 11:59:22;;;;;;;;;;;16.20;69.80;;;;;;5069479;28;19908;-83
2023/10/21 12:02:25;;;;;;;;;;;16.20;70.30;;;;;;5053073;28;19913;-84
2023/10/21 12:26:10;;;;;;;;;;;16.00;72.00;;;;;;5050209;28;19965;-82
2023/10/21 12:36:37;;;;;;;;;;;16.30;64.50;;;;;;5055440;28;19971;-83
2023/10/21 12:41:41;;;;;;;;;;;16.30;63.90;;;;;;5055801;28;19920;-84
2023/10/21 12:44:13;;;;;;;;;;;16.20;65.50;;;;;;5056336;28;19909;-84
2023/10/21 12:46:42;;;;;;;;;;;16.10;65.50;;;;;;5069053;28;19913;-82
2023/10/21 12:49:16;;;;;;;;;;;16.10;65.50;;;;;;5068539;28;19913;-84
2023/10/21 12:51:41;;;;;;;;;;;16.10;65.70;;;;;;5059124;28;19923;-84
2023/10/21 12:54:10;;;;;;;;;;;16.10;65.50;;;;;;5056445;28;19909;-84
2023/10/21 12:56:36;;;;;;;;;;;16.20;65.40;;;;;;5064162;28;19909;-83
2023/10/21 12:59:02;;;;;;;;;;;16.10;65.80;;;;;;5078111;28;19911;-83
2023/10/21 13:01:28;;;;;;;;;;;16.10;66.30;;;;;;5075564;28;19940;-83
2023/10/21 13:03:56;;;;;;;;;;;16.10;64.20;;;;;;5059524;28;19920;-84
2023/10/21 13:06:21;;;;;;;;;;;16.30;64.20;;;;;;5058474;28;19916;-84
2023/10/21 13:08:47;;;;;;;;;;;16.30;65.00;;;;;;5074326;28;19920;-85
2023/10/21 13:11:15;;;;;;;;;;;16.40;65.60;;;;;;5062482;28;19917;-83
2023/10/21 13:13:40;;;;;;;;;;;16.40;63.40;;;;;;5055871;28;20338;-84
2023/10/21 13:16:07;;;;;;;;;;;16.50;63.60;;;;;;5056498;28;19948;-83
2023/10/21 13:18:33;;;;;;;;;;;16.40;62.50;;;;;;5052057;28;19920;-83
2023/10/21 13:20:59;;;;;;;;;;;16.30;63.10;;;;;;5051523;28;20842;-85
2023/10/21 13:23:25;;;;;;;;;;;16.30;62.20;;;;;;5053628;28;19958;-83
2023/10/21 13:25:51;;;;;;;;;;;16.30;62.70;;;;;;5050601;28;19913;-83
2023/10/21 13:28:17;;;;;;;;;;;16.30;63.20;;;;;;5060890;28;19920;-82
2023/10/21 13:30:44;;;;;;;;;;;16.30;62.20;;;;;;5068424;28;19932;-81
2023/10/21 13:33:10;;;;;;;;;;;16.50;59.40;;;;;;5065217;28;19951;-86
2023/10/21 13:35:37;;;;;;;;;;;16.40;58.90;;;;;;5060968;28;20854;-83
2023/10/21 13:38:03;;;;;;;;;;;16.40;58.50;;;;;;5056065;28;19917;-84
2023/10/21 13:40:28;;;;;;;;;;;16.50;58.00;;;;;;5060261;28;19967;-84
2023/10/21 13:42:54;;;;;;;;;;;16.50;59.00;;;;;;5057573;28;19916;-83
2023/10/21 13:45:20;;;;;;;;;;;16.40;59.40;;;;;;5055397;28;19923;-83
2023/10/21 13:47:52;;;;;;;;;;;16.40;58.90;;;;;;5051238;28;19920;-83
2023/10/21 13:50:19;;;;;;;;;;;16.30;59.20;;;;;;5059486;28;19999;-83
2023/10/21 13:52:45;;;;;;;;;;;16.30;59.70;;;;;;5058998;28;19921;-83
2023/10/21 13:55:17;;;;;;;;;;;16.20;60.90;;;;;;5073104;28;19913;-81
2023/10/21 13:57:43;;;;;;;;;;;16.10;61.70;;;;;;5071756;28;19927;-83
2023/10/21 14:00:25;;;;;;;;;;;16.10;62.10;;;;;;5060466;28;19921;-83
2023/10/21 14:02:52;;;;;;;;;;;16.30;60.40;;;;;;5060263;28;19921;-84
2023/10/21 14:05:18;;;;;;;;;;;16.40;60.70;;;;;;5059616;28;19913;-84
2023/10/21 14:07:45;;;;;;;;;;;16.40;61.90;;;;;;5058301;28;19916;-84
2023/10/21 14:10:11;;;;;;;;;;;16.40;61.80;;;;;;5058986;28;19920;-85
2023/10/21 14:12:36;;;;;;;;;;;16.50;60.90;;;;;;5058752;28;19913;-84
2023/10/21 14:15:10;;;;;;;;;;;16.30;62.80;;;;;;5056818;28;19912;-84
2023/10/21 14:17:36;;;;;;;;;;;16.40;61.70;;;;;;5059991;28;19948;-83
2023/10/21 14:20:01;;;;;;;;;;;16.40;61.90;;;;;;5052389;28;19921;-84
2023/10/21 14:22:27;;;;;;;;;;;16.40;61.10;;;;;;5048581;28;19990;-84
2023/10/21 14:24:52;;;;;;;;;;;16.40;61.00;;;;;;5068675;28;19913;-84
2023/10/21 14:27:19;;;;;;;;;;;16.40;62.60;;;;;;5054130;28;19913;-85
2023/10/21 14:29:46;;;;;;;;;;;16.50;60.40;;;;;;5057035;28;19927;-84
2023/10/21 14:32:12;;;;;;;;;;;16.50;61.40;;;;;;5043964;28;19917;-83
2023/10/21 14:34:38;;;;;;;;;;;16.60;61.60;;;;;;5054732;28;19913;-84
2023/10/21 14:37:07;;;;;;;;;;;16.50;61.60;;;;;;5060306;28;19913;-84
2023/10/21 14:39:36;;;;;;;;;;;16.50;62.50;;;;;;5059809;28;19920;-84
2023/10/21 14:42:01;;;;;;;;;;;16.50;61.10;;;;;;5048628;28;19959;-84
2023/10/21 14:44:27;;;;;;;;;;;16.50;61.30;;;;;;5049586;28;20301;-85
2023/10/21 14:46:52;;;;;;;;;;;16.50;61.40;;;;;;5047632;28;20417;-85
2023/10/21 14:49:18;;;;;;;;;;;16.50;62.10;;;;;;5044357;28;20047;-85
2023/10/21 14:51:43;;;;;;;;;;;16.50;62.30;;;;;;5055481;28;20051;-83
2023/10/21 14:54:09;;;;;;;;;;;16.40;62.40;;;;;;5058176;28;19920;-84